sensor_id;sensor_type;location;lat;lon;timestamp;P1;durP1;ratioP1;P2;durP2;ratioP2
12535;SDS011;6334;48.696;2.114;2023-11-21T00:00:07;3.50;;;2.87;;
12535;SDS011;6334;48.696;2.114;2023-11-21T00:02:37;3.90;;;2.50;;
12535;SDS011;6334;48.696;2.114;2023-11-21T00:05:08;3.50;;;1.83;;
12535;SDS011;6334;48.696;2.114;2023-11-21T00:07:38;4.43;;;2.60;;
12535;SDS011;6334;48.696;2.114;2023-11-21T00:10:09;5.97;;;2.43;;
12535;SDS011;6334;48.696;2.114;2023-11-21T00:12:39;7.97;;;2.93;;
12535;SDS011;6334;48.696;2.114;2023-11-21T00:15:09;5.47;;;2.23;;
12535;SDS011;6334;48.696;2.114;2023-11-21T00:17:40;5.53;;;2.50;;
12535;SDS011;6334;48.696;2.114;2023-11-21T00:20:10;5.37;;;2.40;;
12535;SDS011;6334;48.696;2.114;2023-11-21T00:22:41;6.73;;;3.23;;
12535;SDS011;6334;48.696;2.114;2023-11-21T00:25:11;5.93;;;2.97;;
12535;SDS011;6334;48.696;2.114;2023-11-21T00:27:42;6.47;;;2.57;;
12535;SDS011;6334;48.696;2.114;2023-11-21T00:30:12;7.87;;;2.53;;
12535;SDS011;6334;48.696;2.114;2023-11-21T00:32:43;4.90;;;2.87;;
12535;SDS011;6334;48.696;2.114;2023-11-21T00:35:13;4.23;;;2.63;;
12535;SDS011;6334;48.696;2.114;2023-11-21T00:37:44;5.73;;;2.50;;
12535;SDS011;6334;48.696;2.114;2023-11-21T00:40:14;4.20;;;2.80;;
12535;SDS011;6334;48.696;2.114;2023-11-21T00:42:44;7.10;;;2.63;;
12535;SDS011;6334;48.696;2.114;2023-11-21T00:45:15;3.73;;;2.63;;
12535;SDS011;6334;48.696;2.114;2023-11-21T00:47:45;8.93;;;3.17;;
12535;SDS011;6334;48.696;2.114;2023-11-21T00:50:16;2.83;;;2.30;;
12535;SDS011;6334;48.696;2.114;2023-11-21T00:52:46;4.40;;;2.43;;
12535;SDS011;6334;48.696;2.114;2023-11-21T00:55:17;4.13;;;2.30;;
12535;SDS011;6334;48.696;2.114;2023-11-21T00:57:47;7.43;;;2.87;;
12535;SDS011;6334;48.696;2.114;2023-11-21T01:00:18;4.37;;;2.70;;
12535;SDS011;6334;48.696;2.114;2023-11-21T01:02:48;4.40;;;2.27;;
12535;SDS011;6334;48.696;2.114;2023-11-21T01:05:18;3.53;;;2.50;;
12535;SDS011;6334;48.696;2.114;2023-11-21T01:07:49;5.33;;;2.70;;
12535;SDS011;6334;48.696;2.114;2023-11-21T01:10:19;3.97;;;2.50;;
12535;SDS011;6334;48.696;2.114;2023-11-21T01:12:50;4.53;;;2.90;;
12535;SDS011;6334;48.696;2.114;2023-11-21T01:15:20;7.10;;;3.00;;
12535;SDS011;6334;48.696;2.114;2023-11-21T01:17:51;7.10;;;2.83;;
12535;SDS011;6334;48.696;2.114;2023-11-21T01:20:21;4.40;;;2.43;;
12535;SDS011;6334;48.696;2.114;2023-11-21T01:22:52;6.23;;;2.83;;
12535;SDS011;6334;48.696;2.114;2023-11-21T01:25:22;5.50;;;2.67;;
12535;SDS011;6334;48.696;2.114;2023-11-21T01:27:53;6.33;;;2.40;;
12535;SDS011;6334;48.696;2.114;2023-11-21T01:30:23;5.40;;;2.63;;
12535;SDS011;6334;48.696;2.114;2023-11-21T01:32:53;5.47;;;2.53;;
12535;SDS011;6334;48.696;2.114;2023-11-21T01:35:24;4.63;;;2.00;;
12535;SDS011;6334;48.696;2.114;2023-11-21T01:37:54;4.93;;;2.57;;
12535;SDS011;6334;48.696;2.114;2023-11-21T01:40:25;5.00;;;2.33;;
12535;SDS011;6334;48.696;2.114;2023-11-21T01:42:55;5.57;;;2.57;;
12535;SDS011;6334;48.696;2.114;2023-11-21T01:45:26;4.90;;;2.40;;
12535;SDS011;6334;48.696;2.114;2023-11-21T01:47:56;5.47;;;2.53;;
12535;SDS011;6334;48.696;2.114;2023-11-21T01:50:27;5.13;;;2.10;;
12535;SDS011;6334;48.696;2.114;2023-11-21T01:52:57;5.50;;;2.73;;
12535;SDS011;6334;48.696;2.114;2023-11-21T01:55:27;5.73;;;2.73;;
12535;SDS011;6334;48.696;2.114;2023-11-21T01:57:58;4.23;;;2.27;;
12535;SDS011;6334;48.696;2.114;2023-11-21T02:00:29;2.47;;;2.27;;
12535;SDS011;6334;48.696;2.114;2023-11-21T02:02:59;7.10;;;2.73;;
12535;SDS011;6334;48.696;2.114;2023-11-21T02:05:29;10.50;;;3.07;;
12535;SDS011;6334;48.696;2.114;2023-11-21T02:08:00;3.90;;;2.50;;
12535;SDS011;6334;48.696;2.114;2023-11-21T02:10:30;7.50;;;3.00;;
12535;SDS011;6334;48.696;2.114;2023-11-21T02:13:01;7.77;;;2.20;;
12535;SDS011;6334;48.696;2.114;2023-11-21T02:15:31;5.20;;;2.70;;
12535;SDS011;6334;48.696;2.114;2023-11-21T02:18:02;6.97;;;3.10;;
12535;SDS011;6334;48.696;2.114;2023-11-21T02:20:32;3.63;;;2.20;;
12535;SDS011;6334;48.696;2.114;2023-11-21T02:23:02;9.10;;;2.80;;
12535;SDS011;6334;48.696;2.114;2023-11-21T02:25:33;5.77;;;2.37;;
12535;SDS011;6334;48.696;2.114;2023-11-21T02:28:03;4.43;;;2.57;;
12535;SDS011;6334;48.696;2.114;2023-11-21T02:30:34;3.77;;;2.57;;
12535;SDS011;6334;48.696;2.114;2023-11-21T02:33:04;5.67;;;2.50;;
12535;SDS011;6334;48.696;2.114;2023-11-21T02:35:35;6.70;;;2.60;;
12535;SDS011;6334;48.696;2.114;2023-11-21T02:38:05;6.53;;;2.60;;
12535;SDS011;6334;48.696;2.114;2023-11-21T02:40:36;2.77;;;2.40;;
12535;SDS011;6334;48.696;2.114;2023-11-21T02:43:06;6.00;;;2.50;;
12535;SDS011;6334;48.696;2.114;2023-11-21T02:45:37;3.60;;;2.77;;
12535;SDS011;6334;48.696;2.114;2023-11-21T02:48:07;3.87;;;2.57;;
12535;SDS011;6334;48.696;2.114;2023-11-21T02:50:39;4.20;;;2.43;;
12535;SDS011;6334;48.696;2.114;2023-11-21T02:53:09;3.40;;;2.13;;
12535;SDS011;6334;48.696;2.114;2023-11-21T02:55:39;4.00;;;2.43;;
12535;SDS011;6334;48.696;2.114;2023-11-21T02:58:10;5.53;;;2.57;;
12535;SDS011;6334;48.696;2.114;2023-11-21T03:00:40;3.70;;;2.60;;
12535;SDS011;6334;48.696;2.114;2023-11-21T03:03:11;5.20;;;2.63;;
12535;SDS011;6334;48.696;2.114;2023-11-21T03:05:41;5.60;;;2.63;;
12535;SDS011;6334;48.696;2.114;2023-11-21T03:08:12;5.67;;;2.97;;
12535;SDS011;6334;48.696;2.114;2023-11-21T03:10:42;5.80;;;2.73;;
12535;SDS011;6334;48.696;2.114;2023-11-21T03:13:13;2.70;;;2.50;;
12535;SDS011;6334;48.696;2.114;2023-11-21T03:15:43;5.73;;;2.53;;
12535;SDS011;6334;48.696;2.114;2023-11-21T03:18:14;3.30;;;2.23;;
12535;SDS011;6334;48.696;2.114;2023-11-21T03:20:44;5.97;;;2.43;;
12535;SDS011;6334;48.696;2.114;2023-11-21T03:23:14;4.90;;;2.57;;
12535;SDS011;6334;48.696;2.114;2023-11-21T03:25:45;7.10;;;3.03;;
12535;SDS011;6334;48.696;2.114;2023-11-21T03:28:15;3.97;;;2.40;;
12535;SDS011;6334;48.696;2.114;2023-11-21T03:30:46;5.63;;;3.07;;
12535;SDS011;6334;48.696;2.114;2023-11-21T03:33:16;8.50;;;3.30;;
12535;SDS011;6334;48.696;2.114;2023-11-21T03:35:47;5.13;;;2.50;;
12535;SDS011;6334;48.696;2.114;2023-11-21T03:38:17;3.33;;;2.53;;
12535;SDS011;6334;48.696;2.114;2023-11-21T03:40:48;4.43;;;2.60;;
12535;SDS011;6334;48.696;2.114;2023-11-21T03:43:18;4.93;;;2.63;;
12535;SDS011;6334;48.696;2.114;2023-11-21T03:45:49;3.23;;;2.37;;
12535;SDS011;6334;48.696;2.114;2023-11-21T03:48:19;2.77;;;2.30;;
12535;SDS011;6334;48.696;2.114;2023-11-21T03:50:50;4.47;;;2.17;;
12535;SDS011;6334;48.696;2.114;2023-11-21T03:53:20;3.93;;;2.40;;
12535;SDS011;6334;48.696;2.114;2023-11-21T03:55:51;3.07;;;2.20;;
12535;SDS011;6334;48.696;2.114;2023-11-21T03:58:21;5.17;;;2.33;;
12535;SDS011;6334;48.696;2.114;2023-11-21T04:00:51;4.73;;;2.37;;
12535;SDS011;6334;48.696;2.114;2023-11-21T04:03:22;5.17;;;2.83;;
12535;SDS011;6334;48.696;2.114;2023-11-21T04:05:52;3.80;;;2.37;;
12535;SDS011;6334;48.696;2.114;2023-11-21T04:08:23;5.30;;;2.43;;
12535;SDS011;6334;48.696;2.114;2023-11-21T04:10:53;3.93;;;2.43;;
12535;SDS011;6334;48.696;2.114;2023-11-21T04:13:24;3.33;;;2.60;;
12535;SDS011;6334;48.696;2.114;2023-11-21T04:15:54;5.57;;;2.43;;
12535;SDS011;6334;48.696;2.114;2023-11-21T04:18:25;2.97;;;2.43;;
12535;SDS011;6334;48.696;2.114;2023-11-21T04:20:55;4.47;;;2.57;;
12535;SDS011;6334;48.696;2.114;2023-11-21T04:23:26;4.13;;;2.80;;
12535;SDS011;6334;48.696;2.114;2023-11-21T04:25:56;5.20;;;2.60;;
12535;SDS011;6334;48.696;2.114;2023-11-21T04:28:26;4.13;;;2.33;;
12535;SDS011;6334;48.696;2.114;2023-11-21T04:30:57;7.70;;;2.60;;
12535;SDS011;6334;48.696;2.114;2023-11-21T04:33:27;4.77;;;2.57;;
12535;SDS011;6334;48.696;2.114;2023-11-21T04:35:58;5.07;;;2.20;;
12535;SDS011;6334;48.696;2.114;2023-11-21T04:38:28;4.13;;;2.37;;
12535;SDS011;6334;48.696;2.114;2023-11-21T04:40:59;6.20;;;2.73;;
12535;SDS011;6334;48.696;2.114;2023-11-21T04:43:29;4.17;;;2.00;;
12535;SDS011;6334;48.696;2.114;2023-11-21T04:46:00;3.17;;;2.37;;
12535;SDS011;6334;48.696;2.114;2023-11-21T04:48:30;3.33;;;2.20;;
12535;SDS011;6334;48.696;2.114;2023-11-21T04:51:01;2.23;;;1.93;;
12535;SDS011;6334;48.696;2.114;2023-11-21T04:53:31;3.63;;;2.00;;
12535;SDS011;6334;48.696;2.114;2023-11-21T04:56:01;3.70;;;1.93;;
12535;SDS011;6334;48.696;2.114;2023-11-21T04:58:32;4.13;;;2.03;;
12535;SDS011;6334;48.696;2.114;2023-11-21T05:01:02;2.37;;;1.80;;
12535;SDS011;6334;48.696;2.114;2023-11-21T05:03:33;3.13;;;1.77;;
12535;SDS011;6334;48.696;2.114;2023-11-21T05:06:03;3.00;;;1.70;;
12535;SDS011;6334;48.696;2.114;2023-11-21T05:08:34;3.33;;;1.30;;
12535;SDS011;6334;48.696;2.114;2023-11-21T05:11:04;1.50;;;1.33;;
12535;SDS011;6334;48.696;2.114;2023-11-21T05:13:35;1.30;;;1.20;;
12535;SDS011;6334;48.696;2.114;2023-11-21T05:16:05;1.50;;;1.40;;
12535;SDS011;6334;48.696;2.114;2023-11-21T05:18:36;1.10;;;1.00;;
12535;SDS011;6334;48.696;2.114;2023-11-21T05:21:06;1.53;;;1.37;;
12535;SDS011;6334;48.696;2.114;2023-11-21T05:23:36;1.20;;;1.03;;
12535;SDS011;6334;48.696;2.114;2023-11-21T05:26:07;1.17;;;1.07;;
12535;SDS011;6334;48.696;2.114;2023-11-21T05:28:37;1.57;;;1.03;;
12535;SDS011;6334;48.696;2.114;2023-11-21T05:31:08;2.70;;;0.70;;
12535;SDS011;6334;48.696;2.114;2023-11-21T05:33:38;2.33;;;1.13;;
12535;SDS011;6334;48.696;2.114;2023-11-21T05:36:09;0.87;;;0.87;;
12535;SDS011;6334;48.696;2.114;2023-11-21T05:38:39;0.70;;;0.70;;
12535;SDS011;6334;48.696;2.114;2023-11-21T05:41:10;1.20;;;1.00;;
12535;SDS011;6334;48.696;2.114;2023-11-21T05:43:40;1.67;;;1.00;;
12535;SDS011;6334;48.696;2.114;2023-11-21T05:46:11;0.70;;;0.70;;
12535;SDS011;6334;48.696;2.114;2023-11-21T05:48:41;0.83;;;0.83;;
12535;SDS011;6334;48.696;2.114;2023-11-21T05:51:11;1.10;;;0.83;;
12535;SDS011;6334;48.696;2.114;2023-11-21T05:53:42;1.00;;;0.93;;
12535;SDS011;6334;48.696;2.114;2023-11-21T05:56:12;1.07;;;1.00;;
12535;SDS011;6334;48.696;2.114;2023-11-21T05:58:43;1.10;;;1.00;;
12535;SDS011;6334;48.696;2.114;2023-11-21T06:01:13;2.90;;;1.10;;
12535;SDS011;6334;48.696;2.114;2023-11-21T06:03:44;1.77;;;0.87;;
12535;SDS011;6334;48.696;2.114;2023-11-21T06:06:14;0.83;;;0.83;;
12535;SDS011;6334;48.696;2.114;2023-11-21T06:08:45;2.57;;;1.07;;
12535;SDS011;6334;48.696;2.114;2023-11-21T06:11:15;0.80;;;0.80;;
12535;SDS011;6334;48.696;2.114;2023-11-21T06:13:46;0.53;;;0.53;;
12535;SDS011;6334;48.696;2.114;2023-11-21T06:16:17;1.50;;;1.03;;
12535;SDS011;6334;48.696;2.114;2023-11-21T06:18:48;1.00;;;1.00;;
12535;SDS011;6334;48.696;2.114;2023-11-21T06:21:18;3.43;;;1.17;;
12535;SDS011;6334;48.696;2.114;2023-11-21T06:23:49;3.73;;;1.77;;
12535;SDS011;6334;48.696;2.114;2023-11-21T06:26:19;1.87;;;1.50;;
12535;SDS011;6334;48.696;2.114;2023-11-21T06:28:50;1.43;;;1.33;;
12535;SDS011;6334;48.696;2.114;2023-11-21T06:31:20;1.57;;;1.47;;
12535;SDS011;6334;48.696;2.114;2023-11-21T06:33:51;3.10;;;2.60;;
12535;SDS011;6334;48.696;2.114;2023-11-21T06:36:21;2.73;;;2.53;;
12535;SDS011;6334;48.696;2.114;2023-11-21T06:38:54;2.30;;;2.10;;
12535;SDS011;6334;48.696;2.114;2023-11-21T06:41:25;2.67;;;2.40;;
12535;SDS011;6334;48.696;2.114;2023-11-21T06:43:55;2.10;;;2.00;;
12535;SDS011;6334;48.696;2.114;2023-11-21T06:46:26;1.60;;;1.50;;
12535;SDS011;6334;48.696;2.114;2023-11-21T06:48:56;1.90;;;1.67;;
12535;SDS011;6334;48.696;2.114;2023-11-21T06:51:27;2.07;;;1.97;;
12535;SDS011;6334;48.696;2.114;2023-11-21T06:53:57;2.00;;;1.90;;
12535;SDS011;6334;48.696;2.114;2023-11-21T06:56:27;1.87;;;1.77;;
12535;SDS011;6334;48.696;2.114;2023-11-21T06:58:58;2.07;;;1.97;;
12535;SDS011;6334;48.696;2.114;2023-11-21T07:01:28;2.33;;;2.13;;
12535;SDS011;6334;48.696;2.114;2023-11-21T07:03:59;2.30;;;2.20;;
12535;SDS011;6334;48.696;2.114;2023-11-21T07:06:29;2.67;;;2.30;;
12535;SDS011;6334;48.696;2.114;2023-11-21T07:09:00;2.20;;;2.10;;
12535;SDS011;6334;48.696;2.114;2023-11-21T07:11:30;2.83;;;2.63;;
12535;SDS011;6334;48.696;2.114;2023-11-21T07:14:01;3.27;;;2.97;;
12535;SDS011;6334;48.696;2.114;2023-11-21T07:16:31;3.43;;;2.90;;
12535;SDS011;6334;48.696;2.114;2023-11-21T07:19:02;3.30;;;3.00;;
12535;SDS011;6334;48.696;2.114;2023-11-21T07:21:35;2.93;;;2.73;;
12535;SDS011;6334;48.696;2.114;2023-11-21T07:24:05;3.10;;;2.80;;
12535;SDS011;6334;48.696;2.114;2023-11-21T07:26:36;4.77;;;3.13;;
12535;SDS011;6334;48.696;2.114;2023-11-21T07:29:06;3.80;;;3.50;;
12535;SDS011;6334;48.696;2.114;2023-11-21T07:31:37;3.90;;;3.60;;
12535;SDS011;6334;48.696;2.114;2023-11-21T07:34:07;4.67;;;4.00;;
12535;SDS011;6334;48.696;2.114;2023-11-21T07:36:38;3.80;;;3.43;;
12535;SDS011;6334;48.696;2.114;2023-11-21T07:39:08;5.67;;;4.07;;
12535;SDS011;6334;48.696;2.114;2023-11-21T07:41:39;5.20;;;4.10;;
12535;SDS011;6334;48.696;2.114;2023-11-21T07:44:09;4.53;;;4.10;;
12535;SDS011;6334;48.696;2.114;2023-11-21T07:46:39;5.83;;;4.40;;
12535;SDS011;6334;48.696;2.114;2023-11-21T07:49:10;4.50;;;3.90;;
12535;SDS011;6334;48.696;2.114;2023-11-21T07:51:43;5.10;;;4.23;;
12535;SDS011;6334;48.696;2.114;2023-11-21T07:54:14;4.30;;;3.90;;
12535;SDS011;6334;48.696;2.114;2023-11-21T07:56:44;4.93;;;4.43;;
12535;SDS011;6334;48.696;2.114;2023-11-21T07:59:15;6.10;;;4.57;;
12535;SDS011;6334;48.696;2.114;2023-11-21T08:01:45;8.93;;;5.10;;
12535;SDS011;6334;48.696;2.114;2023-11-21T08:04:16;5.30;;;4.80;;
12535;SDS011;6334;48.696;2.114;2023-11-21T08:06:46;6.50;;;4.80;;
12535;SDS011;6334;48.696;2.114;2023-11-21T08:09:16;6.40;;;5.17;;
12535;SDS011;6334;48.696;2.114;2023-11-21T08:11:47;6.93;;;5.10;;
12535;SDS011;6334;48.696;2.114;2023-11-21T08:14:17;8.33;;;5.00;;
12535;SDS011;6334;48.696;2.114;2023-11-21T08:16:49;7.33;;;5.07;;
12535;SDS011;6334;48.696;2.114;2023-11-21T08:19:19;6.20;;;4.83;;
12535;SDS011;6334;48.696;2.114;2023-11-21T08:21:50;6.43;;;4.97;;
12535;SDS011;6334;48.696;2.114;2023-11-21T08:24:21;6.00;;;4.87;;
12535;SDS011;6334;48.696;2.114;2023-11-21T08:26:51;5.87;;;4.90;;
12535;SDS011;6334;48.696;2.114;2023-11-21T08:29:22;6.47;;;5.20;;
12535;SDS011;6334;48.696;2.114;2023-11-21T08:31:52;5.70;;;4.90;;
12535;SDS011;6334;48.696;2.114;2023-11-21T08:34:23;6.97;;;5.13;;
12535;SDS011;6334;48.696;2.114;2023-11-21T08:36:53;7.00;;;5.30;;
12535;SDS011;6334;48.696;2.114;2023-11-21T08:39:23;8.70;;;5.57;;
12535;SDS011;6334;48.696;2.114;2023-11-21T08:41:54;6.60;;;4.73;;
12535;SDS011;6334;48.696;2.114;2023-11-21T08:44:24;7.10;;;5.27;;
12535;SDS011;6334;48.696;2.114;2023-11-21T08:46:55;7.07;;;5.03;;
12535;SDS011;6334;48.696;2.114;2023-11-21T08:49:25;6.80;;;5.20;;
12535;SDS011;6334;48.696;2.114;2023-11-21T08:51:56;6.40;;;5.00;;
12535;SDS011;6334;48.696;2.114;2023-11-21T08:54:26;5.83;;;4.83;;
12535;SDS011;6334;48.696;2.114;2023-11-21T08:56:57;8.03;;;5.10;;
12535;SDS011;6334;48.696;2.114;2023-11-21T08:59:28;8.00;;;4.47;;
12535;SDS011;6334;48.696;2.114;2023-11-21T09:01:59;5.33;;;4.50;;
12535;SDS011;6334;48.696;2.114;2023-11-21T09:04:29;5.67;;;4.50;;
12535;SDS011;6334;48.696;2.114;2023-11-21T09:07:00;5.40;;;4.20;;
12535;SDS011;6334;48.696;2.114;2023-11-21T09:09:30;5.00;;;4.50;;
12535;SDS011;6334;48.696;2.114;2023-11-21T09:12:00;5.40;;;4.03;;
12535;SDS011;6334;48.696;2.114;2023-11-21T09:14:31;4.50;;;4.00;;
12535;SDS011;6334;48.696;2.114;2023-11-21T09:17:01;4.67;;;4.03;;
12535;SDS011;6334;48.696;2.114;2023-11-21T09:19:32;5.00;;;4.10;;
12535;SDS011;6334;48.696;2.114;2023-11-21T09:22:02;6.07;;;3.80;;
12535;SDS011;6334;48.696;2.114;2023-11-21T09:24:33;3.93;;;3.63;;
12535;SDS011;6334;48.696;2.114;2023-11-21T09:27:03;4.30;;;3.90;;
12535;SDS011;6334;48.696;2.114;2023-11-21T09:29:34;4.20;;;3.80;;
12535;SDS011;6334;48.696;2.114;2023-11-21T09:32:05;4.23;;;3.80;;
12535;SDS011;6334;48.696;2.114;2023-11-21T09:34:35;4.67;;;3.70;;
12535;SDS011;6334;48.696;2.114;2023-11-21T09:37:05;4.00;;;3.60;;
12535;SDS011;6334;48.696;2.114;2023-11-21T09:39:35;3.93;;;3.63;;
12535;SDS011;6334;48.696;2.114;2023-11-21T09:42:12;4.10;;;3.63;;
12535;SDS011;6334;48.696;2.114;2023-11-21T09:47:18;3.90;;;3.50;;
12535;SDS011;6334;48.696;2.114;2023-11-21T09:49:49;4.23;;;3.17;;
12535;SDS011;6334;48.696;2.114;2023-11-21T09:52:22;5.00;;;3.33;;
12535;SDS011;6334;48.696;2.114;2023-11-21T09:54:53;4.37;;;3.57;;
12535;SDS011;6334;48.696;2.114;2023-11-21T09:57:23;4.17;;;3.30;;
12535;SDS011;6334;48.696;2.114;2023-11-21T09:59:54;3.90;;;3.50;;
12535;SDS011;6334;48.696;2.114;2023-11-21T10:02:27;3.80;;;3.50;;
12535;SDS011;6334;48.696;2.114;2023-11-21T10:04:58;3.17;;;2.87;;
12535;SDS011;6334;48.696;2.114;2023-11-21T10:07:28;4.00;;;2.63;;
12535;SDS011;6334;48.696;2.114;2023-11-21T10:09:58;2.97;;;2.77;;
12535;SDS011;6334;48.696;2.114;2023-11-21T10:12:29;3.17;;;2.87;;
12535;SDS011;6334;48.696;2.114;2023-11-21T10:14:59;4.67;;;2.53;;
12535;SDS011;6334;48.696;2.114;2023-11-21T10:17:29;2.37;;;2.27;;
12535;SDS011;6334;48.696;2.114;2023-11-21T10:20:00;2.83;;;1.70;;
12535;SDS011;6334;48.696;2.114;2023-11-21T10:22:29;2.27;;;2.13;;
12535;SDS011;6334;48.696;2.114;2023-11-21T10:25:00;2.60;;;2.37;;
12535;SDS011;6334;48.696;2.114;2023-11-21T10:27:30;3.13;;;1.63;;
12535;SDS011;6334;48.696;2.114;2023-11-21T10:30:02;2.00;;;1.80;;
12535;SDS011;6334;48.696;2.114;2023-11-21T10:32:40;3.30;;;2.00;;
12535;SDS011;6334;48.696;2.114;2023-11-21T10:35:11;2.30;;;2.10;;
12535;SDS011;6334;48.696;2.114;2023-11-21T10:37:41;2.00;;;1.80;;
12535;SDS011;6334;48.696;2.114;2023-11-21T10:40:11;1.70;;;1.60;;
12535;SDS011;6334;48.696;2.114;2023-11-21T10:42:42;1.80;;;1.70;;
12535;SDS011;6334;48.696;2.114;2023-11-21T10:45:12;4.07;;;1.70;;
12535;SDS011;6334;48.696;2.114;2023-11-21T10:47:43;1.80;;;1.70;;
12535;SDS011;6334;48.696;2.114;2023-11-21T10:50:13;1.83;;;1.57;;
12535;SDS011;6334;48.696;2.114;2023-11-21T10:52:44;3.17;;;2.55;;
12535;SDS011;6334;48.696;2.114;2023-11-21T10:55:17;2.20;;;2.10;;
12535;SDS011;6334;48.696;2.114;2023-11-21T10:57:53;2.37;;;2.13;;
12535;SDS011;6334;48.696;2.114;2023-11-21T11:00:23;2.13;;;1.73;;
12535;SDS011;6334;48.696;2.114;2023-11-21T11:02:54;2.13;;;1.77;;
12535;SDS011;6334;48.696;2.114;2023-11-21T11:05:25;1.33;;;1.23;;
12535;SDS011;6334;48.696;2.114;2023-11-21T11:08:04;2.40;;;1.57;;
12535;SDS011;6334;48.696;2.114;2023-11-21T11:10:34;1.67;;;1.57;;
12535;SDS011;6334;48.696;2.114;2023-11-21T11:13:04;2.17;;;1.60;;
12535;SDS011;6334;48.696;2.114;2023-11-21T11:15:35;3.17;;;1.30;;
12535;SDS011;6334;48.696;2.114;2023-11-21T11:18:05;1.97;;;1.67;;
12535;SDS011;6334;48.696;2.114;2023-11-21T11:20:38;2.03;;;1.73;;
12535;SDS011;6334;48.696;2.114;2023-11-21T11:26:24;2.30;;;1.77;;
12535;SDS011;6334;48.696;2.114;2023-11-21T11:31:48;1.97;;;1.13;;
12535;SDS011;6334;48.696;2.114;2023-11-21T11:34:24;1.97;;;1.43;;
12535;SDS011;6334;48.696;2.114;2023-11-21T11:37:02;1.27;;;1.17;;
12535;SDS011;6334;48.696;2.114;2023-11-21T11:39:38;1.30;;;1.20;;
12535;SDS011;6334;48.696;2.114;2023-11-21T11:42:14;1.37;;;1.37;;
12535;SDS011;6334;48.696;2.114;2023-11-21T11:47:18;1.30;;;1.10;;
12535;SDS011;6334;48.696;2.114;2023-11-21T11:52:49;1.17;;;1.17;;
12535;SDS011;6334;48.696;2.114;2023-11-21T11:55:20;1.90;;;1.07;;
12535;SDS011;6334;48.696;2.114;2023-11-21T11:57:51;1.60;;;1.03;;
12535;SDS011;6334;48.696;2.114;2023-11-21T12:00:21;1.03;;;0.97;;
12535;SDS011;6334;48.696;2.114;2023-11-21T12:02:57;0.87;;;0.70;;
12535;SDS011;6334;48.696;2.114;2023-11-21T12:05:27;1.23;;;1.00;;
12535;SDS011;6334;48.696;2.114;2023-11-21T12:08:01;1.23;;;0.80;;
12535;SDS011;6334;48.696;2.114;2023-11-21T12:10:31;1.20;;;1.10;;
12535;SDS011;6334;48.696;2.114;2023-11-21T12:13:02;1.20;;;1.20;;
12535;SDS011;6334;48.696;2.114;2023-11-21T12:15:31;2.43;;;1.60;;
12535;SDS011;6334;48.696;2.114;2023-11-21T12:18:02;0.83;;;0.83;;
12535;SDS011;6334;48.696;2.114;2023-11-21T12:20:32;1.43;;;1.17;;
12535;SDS011;6334;48.696;2.114;2023-11-21T12:23:05;1.73;;;1.23;;
12535;SDS011;6334;48.696;2.114;2023-11-21T12:25:35;1.30;;;1.03;;
12535;SDS011;6334;48.696;2.114;2023-11-21T12:28:05;2.83;;;1.30;;
12535;SDS011;6334;48.696;2.114;2023-11-21T12:30:36;1.20;;;1.10;;
12535;SDS011;6334;48.696;2.114;2023-11-21T12:33:06;0.93;;;0.87;;
12535;SDS011;6334;48.696;2.114;2023-11-21T12:35:36;1.60;;;0.80;;
12535;SDS011;6334;48.696;2.114;2023-11-21T12:38:07;1.40;;;0.97;;
12535;SDS011;6334;48.696;2.114;2023-11-21T12:40:37;1.17;;;1.07;;
12535;SDS011;6334;48.696;2.114;2023-11-21T12:43:09;1.23;;;1.13;;
12535;SDS011;6334;48.696;2.114;2023-11-21T12:45:39;0.93;;;0.80;;
12535;SDS011;6334;48.696;2.114;2023-11-21T12:48:10;0.90;;;0.90;;
12535;SDS011;6334;48.696;2.114;2023-11-21T12:50:40;0.87;;;0.87;;
12535;SDS011;6334;48.696;2.114;2023-11-21T12:53:11;0.53;;;0.53;;
12535;SDS011;6334;48.696;2.114;2023-11-21T12:55:43;0.73;;;0.60;;
12535;SDS011;6334;48.696;2.114;2023-11-21T12:58:12;0.93;;;0.93;;
12535;SDS011;6334;48.696;2.114;2023-11-21T13:00:43;1.43;;;1.33;;
12535;SDS011;6334;48.696;2.114;2023-11-21T13:03:14;1.00;;;0.90;;
12535;SDS011;6334;48.696;2.114;2023-11-21T13:05:46;2.33;;;1.00;;
12535;SDS011;6334;48.696;2.114;2023-11-21T13:08:18;2.10;;;1.23;;
12535;SDS011;6334;48.696;2.114;2023-11-21T13:10:50;0.87;;;0.87;;
12535;SDS011;6334;48.696;2.114;2023-11-21T13:13:20;1.50;;;1.20;;
12535;SDS011;6334;48.696;2.114;2023-11-21T13:15:54;1.13;;;1.10;;
12535;SDS011;6334;48.696;2.114;2023-11-21T13:18:24;2.57;;;1.13;;
12535;SDS011;6334;48.696;2.114;2023-11-21T13:20:54;2.00;;;1.30;;
12535;SDS011;6334;48.696;2.114;2023-11-21T13:23:39;1.93;;;1.27;;
12535;SDS011;6334;48.696;2.114;2023-11-21T13:26:10;1.00;;;0.90;;
12535;SDS011;6334;48.696;2.114;2023-11-21T13:28:40;1.70;;;0.93;;
12535;SDS011;6334;48.696;2.114;2023-11-21T13:31:11;3.70;;;1.53;;
12535;SDS011;6334;48.696;2.114;2023-11-21T13:33:53;1.30;;;1.10;;
12535;SDS011;6334;48.696;2.114;2023-11-21T13:36:25;3.23;;;1.80;;
12535;SDS011;6334;48.696;2.114;2023-11-21T13:38:56;4.17;;;1.50;;
12535;SDS011;6334;48.696;2.114;2023-11-21T13:41:26;4.27;;;1.37;;
12535;SDS011;6334;48.696;2.114;2023-11-21T13:43:57;1.40;;;1.20;;
12535;SDS011;6334;48.696;2.114;2023-11-21T13:46:30;1.13;;;1.13;;
12535;SDS011;6334;48.696;2.114;2023-11-21T13:49:00;2.03;;;1.50;;
12535;SDS011;6334;48.696;2.114;2023-11-21T13:51:31;3.70;;;0.80;;
12535;SDS011;6334;48.696;2.114;2023-11-21T13:54:01;1.50;;;0.87;;
12535;SDS011;6334;48.696;2.114;2023-11-21T13:56:32;0.97;;;0.90;;
12535;SDS011;6334;48.696;2.114;2023-11-21T13:59:02;1.37;;;0.90;;
12535;SDS011;6334;48.696;2.114;2023-11-21T14:01:33;2.80;;;1.43;;
12535;SDS011;6334;48.696;2.114;2023-11-21T14:04:18;0.80;;;0.80;;
12535;SDS011;6334;48.696;2.114;2023-11-21T14:06:58;1.73;;;1.20;;
12535;SDS011;6334;48.696;2.114;2023-11-21T14:09:28;0.83;;;0.80;;
12535;SDS011;6334;48.696;2.114;2023-11-21T14:12:01;1.60;;;1.27;;
12535;SDS011;6334;48.696;2.114;2023-11-21T14:14:31;2.37;;;1.60;;
12535;SDS011;6334;48.696;2.114;2023-11-21T14:17:01;0.90;;;0.90;;
12535;SDS011;6334;48.696;2.114;2023-11-21T14:19:31;2.97;;;1.40;;
12535;SDS011;6334;48.696;2.114;2023-11-21T14:22:02;1.37;;;0.77;;
12535;SDS011;6334;48.696;2.114;2023-11-21T14:24:32;1.37;;;1.27;;
12535;SDS011;6334;48.696;2.114;2023-11-21T14:27:04;3.93;;;1.43;;
12535;SDS011;6334;48.696;2.114;2023-11-21T14:29:34;1.43;;;1.20;;
12535;SDS011;6334;48.696;2.114;2023-11-21T14:32:04;2.57;;;1.60;;
12535;SDS011;6334;48.696;2.114;2023-11-21T14:34:35;1.30;;;1.30;;
12535;SDS011;6334;48.696;2.114;2023-11-21T14:37:05;2.40;;;1.50;;
12535;SDS011;6334;48.696;2.114;2023-11-21T14:39:36;1.50;;;1.30;;
12535;SDS011;6334;48.696;2.114;2023-11-21T14:42:06;1.83;;;1.70;;
12535;SDS011;6334;48.696;2.114;2023-11-21T14:44:37;2.20;;;1.63;;
12535;SDS011;6334;48.696;2.114;2023-11-21T14:47:07;1.43;;;1.10;;
12535;SDS011;6334;48.696;2.114;2023-11-21T14:49:44;1.50;;;1.40;;
12535;SDS011;6334;48.696;2.114;2023-11-21T14:52:17;1.27;;;1.10;;
12535;SDS011;6334;48.696;2.114;2023-11-21T14:55:00;1.93;;;1.30;;
12535;SDS011;6334;48.696;2.114;2023-11-21T14:57:48;2.40;;;1.30;;
12535;SDS011;6334;48.696;2.114;2023-11-21T15:00:19;2.70;;;1.30;;
12535;SDS011;6334;48.696;2.114;2023-11-21T15:03:04;3.90;;;1.40;;
12535;SDS011;6334;48.696;2.114;2023-11-21T15:05:34;2.60;;;1.40;;
12535;SDS011;6334;48.696;2.114;2023-11-21T15:08:04;3.00;;;1.20;;
12535;SDS011;6334;48.696;2.114;2023-11-21T15:10:41;1.80;;;1.70;;
12535;SDS011;6334;48.696;2.114;2023-11-21T15:13:14;2.40;;;2.20;;
12535;SDS011;6334;48.696;2.114;2023-11-21T15:15:45;2.30;;;1.77;;
12535;SDS011;6334;48.696;2.114;2023-11-21T15:18:15;2.00;;;1.87;;
12535;SDS011;6334;48.696;2.114;2023-11-21T15:20:45;1.40;;;1.30;;
12535;SDS011;6334;48.696;2.114;2023-11-21T15:23:16;3.10;;;2.07;;
12535;SDS011;6334;48.696;2.114;2023-11-21T15:25:46;1.83;;;1.73;;
12535;SDS011;6334;48.696;2.114;2023-11-21T15:28:17;1.00;;;1.00;;
12535;SDS011;6334;48.696;2.114;2023-11-21T15:30:49;1.13;;;1.03;;
12535;SDS011;6334;48.696;2.114;2023-11-21T15:33:18;2.07;;;1.27;;
12535;SDS011;6334;48.696;2.114;2023-11-21T15:35:49;3.50;;;1.67;;